createdAt,value
2022-10-17T00:11:24.990Z,988.61
2022-10-17T00:23:25.385Z,988.57
2022-10-17T00:35:25.848Z,988.65
2022-10-17T00:47:26.298Z,988.69
2022-10-17T00:59:26.764Z,988.62
2022-10-17T01:11:27.234Z,988.54
2022-10-17T01:23:27.628Z,988.52
2022-10-17T01:35:28.109Z,988.45
2022-10-17T01:47:28.883Z,988.41
2022-10-17T01:59:29.030Z,988.34
2022-10-17T02:11:29.477Z,988.28
2022-10-17T02:23:29.925Z,988.22
2022-10-17T02:35:30.398Z,988.17
2022-10-17T02:47:30.818Z,988.28
2022-10-17T02:59:31.304Z,988.21
2022-10-17T03:11:31.748Z,988.33
2022-10-17T03:23:32.179Z,988.40
2022-10-17T03:35:32.664Z,988.50
2022-10-17T03:47:33.242Z,988.52
2022-10-17T03:59:33.565Z,988.65
2022-10-17T04:11:34.023Z,988.75
2022-10-17T04:23:34.469Z,988.92
2022-10-17T04:35:34.905Z,988.99
2022-10-17T04:47:35.374Z,988.92
2022-10-17T04:59:35.844Z,989.07
2022-10-17T05:11:36.279Z,989.16
2022-10-17T05:23:36.713Z,989.25
2022-10-17T05:35:37.173Z,989.24
2022-10-17T05:47:37.660Z,989.42
2022-10-17T05:59:38.110Z,989.63
2022-10-17T06:11:38.540Z,989.64
2022-10-17T06:23:39.018Z,989.75
2022-10-17T06:35:39.425Z,989.94
2022-10-17T06:47:39.900Z,990.16
2022-10-17T06:59:40.323Z,990.28
2022-10-17T07:11:40.796Z,990.40
2022-10-17T07:23:41.283Z,990.44
2022-10-17T07:35:41.710Z,990.49
2022-10-17T07:47:42.198Z,990.44
2022-10-17T07:59:42.618Z,990.53
2022-10-17T08:11:43.111Z,990.65
2022-10-17T08:23:43.555Z,990.84
2022-10-17T08:35:43.983Z,990.87
2022-10-17T08:47:44.436Z,990.84
2022-10-17T08:59:44.899Z,990.92
2022-10-17T09:11:45.335Z,991.00
2022-10-17T09:23:45.800Z,991.04
2022-10-17T09:35:46.256Z,991.01
2022-10-17T09:47:46.717Z,991.17
2022-10-17T10:10:02.782Z,991.28
2022-10-17T10:22:03.243Z,991.28
2022-10-17T10:34:03.727Z,991.24
2022-10-17T10:46:04.177Z,991.30
2022-10-17T10:58:04.627Z,991.32
2022-10-17T11:10:05.077Z,991.22
2022-10-17T11:22:05.533Z,991.17
2022-10-17T11:34:05.956Z,991.07
2022-10-17T11:46:06.408Z,991.18
2022-10-17T11:58:06.921Z,991.13
2022-10-17T12:10:07.368Z,991.06
2022-10-17T12:22:07.793Z,991.03
2022-10-17T12:34:08.268Z,990.90
2022-10-17T12:46:08.685Z,990.83
2022-10-17T12:58:09.209Z,990.77
2022-10-17T13:10:12.540Z,990.67
2022-10-17T13:22:10.096Z,990.67
2022-10-17T13:34:10.523Z,990.75
2022-10-17T13:46:32.540Z,990.80
2022-10-17T13:58:11.491Z,990.85
2022-10-17T14:10:11.950Z,990.85
2022-10-17T14:22:12.415Z,990.75
2022-10-17T14:34:12.867Z,990.86
2022-10-17T14:46:13.314Z,990.75
2022-10-17T14:58:13.728Z,990.79
2022-10-17T15:10:14.198Z,990.74
2022-10-17T15:22:14.693Z,990.89
2022-10-17T15:34:15.147Z,990.88
2022-10-17T15:46:16.018Z,990.90
2022-10-17T15:58:16.036Z,990.97
2022-10-17T16:10:16.488Z,990.90
2022-10-17T16:22:16.960Z,991.04
2022-10-17T16:34:17.396Z,991.07
2022-10-17T16:46:17.859Z,991.13
2022-10-17T16:58:18.434Z,991.08
2022-10-17T17:10:18.775Z,991.17
2022-10-17T17:22:19.205Z,991.16
2022-10-17T17:34:19.668Z,991.28
2022-10-17T17:46:20.152Z,991.36
2022-10-17T17:58:20.614Z,991.38
2022-10-17T18:10:21.051Z,991.30
2022-10-17T18:22:21.485Z,991.25
2022-10-17T18:34:21.949Z,991.35
2022-10-17T18:46:22.410Z,991.40
2022-10-17T18:58:22.827Z,991.22
2022-10-17T19:10:23.633Z,991.32
2022-10-17T19:22:23.794Z,991.35
2022-10-17T19:34:24.215Z,991.38
2022-10-17T19:46:24.640Z,991.31
2022-10-17T19:58:25.116Z,991.30
2022-10-17T20:10:25.581Z,991.25
2022-10-17T20:22:26.013Z,991.34
2022-10-17T20:34:26.483Z,991.20
2022-10-17T20:46:36.855Z,991.30
2022-10-17T20:58:27.390Z,991.39
2022-10-17T21:10:35.285Z,991.31
2022-10-17T21:22:28.505Z,991.29
2022-10-17T21:34:28.724Z,991.23
2022-10-17T21:46:29.222Z,991.11
2022-10-17T21:58:29.737Z,991.15
2022-10-17T22:10:30.100Z,991.08
2022-10-17T22:22:30.555Z,991.19
2022-10-17T22:34:31.031Z,990.99
2022-10-17T22:46:31.463Z,990.93
2022-10-17T22:58:31.922Z,990.80
2022-10-17T23:10:32.380Z,990.83
2022-10-17T23:22:33.037Z,990.70
2022-10-17T23:34:33.256Z,990.47
2022-10-17T23:46:33.724Z,990.43
2022-10-17T23:58:34.175Z,990.42
